createdAt,value
2024-02-09T00:00:44.355Z,9.60
2024-02-09T00:03:12.969Z,9.90
2024-02-09T00:05:40.444Z,9.50
2024-02-09T00:08:08.541Z,9.60
2024-02-09T00:10:39.047Z,9.80
2024-02-09T00:13:21.478Z,9.90
2024-02-09T00:15:50.564Z,9.40
2024-02-09T00:18:20.561Z,9.70
2024-02-09T00:20:53.154Z,9.80
2024-02-09T00:23:21.714Z,9.60
2024-02-09T00:25:50.782Z,9.40
2024-02-09T00:28:17.994Z,11.20
2024-02-09T00:30:45.224Z,9.30
2024-02-09T00:35:43.726Z,9.70
2024-02-09T00:38:12.369Z,9.70
2024-02-09T00:40:40.953Z,9.70
2024-02-09T00:43:08.821Z,9.60
2024-02-09T00:45:37.796Z,9.20
2024-02-09T00:48:08.094Z,9.90
2024-02-09T00:50:38.057Z,9.70
2024-02-09T00:53:07.538Z,10.30
2024-02-09T00:55:35.019Z,9.80
2024-02-09T00:58:03.573Z,10.70
2024-02-09T01:00:32.572Z,9.80
2024-02-09T01:03:04.552Z,9.70
2024-02-09T01:05:34.639Z,9.70
2024-02-09T01:08:03.474Z,9.60
2024-02-09T01:10:33.122Z,9.70
2024-02-09T01:13:19.386Z,9.70
2024-02-09T01:16:05.568Z,9.70
2024-02-09T01:18:51.089Z,9.70
2024-02-09T01:21:36.933Z,9.70
2024-02-09T01:24:22.857Z,9.80
2024-02-09T01:27:08.637Z,10.60
2024-02-09T01:29:54.077Z,9.60
2024-02-09T01:32:39.906Z,9.60
2024-02-09T01:35:25.636Z,9.60
2024-02-09T01:38:11.565Z,9.60
2024-02-09T01:40:56.847Z,9.60
2024-02-09T01:43:42.703Z,9.60
2024-02-09T01:46:28.752Z,9.80
2024-02-09T01:49:14.613Z,8.90
2024-02-09T01:52:00.670Z,9.50
2024-02-09T01:54:47.096Z,9.10
2024-02-09T01:57:33.602Z,9.70
2024-02-09T02:00:19.548Z,9.80
2024-02-09T02:03:06.374Z,9.60
2024-02-09T02:05:53.114Z,9.70
2024-02-09T02:08:39.536Z,9.70
2024-02-09T02:11:25.357Z,9.70
2024-02-09T02:14:10.810Z,9.60
2024-02-09T02:16:56.762Z,9.50
2024-02-09T02:19:42.706Z,10.70
2024-02-09T02:22:33.775Z,9.50
2024-02-09T02:25:29.125Z,9.60
2024-02-09T02:28:15.195Z,9.60
2024-02-09T02:31:01.949Z,9.60
2024-02-09T02:33:48.065Z,9.50
2024-02-09T02:36:34.203Z,9.60
2024-02-09T02:39:20.181Z,9.60
2024-02-09T02:41:47.287Z,9.30
2024-02-09T02:44:14.317Z,9.50
2024-02-09T02:46:41.907Z,9.50
2024-02-09T02:49:28.202Z,9.40
2024-02-09T02:52:13.848Z,9.60
2024-02-09T02:55:00.096Z,9.40
2024-02-09T02:57:45.629Z,9.30
2024-02-09T03:00:32.212Z,9.20
2024-02-09T03:03:17.593Z,9.30
2024-02-09T03:05:44.746Z,9.10
2024-02-09T03:08:44.694Z,9.50
2024-02-09T03:10:59.029Z,9.20
2024-02-09T03:13:26.064Z,9.30
2024-02-09T03:15:54.388Z,9.30
2024-02-09T03:18:24.664Z,9.30
2024-02-09T03:20:52.225Z,9.30
2024-02-09T03:23:21.156Z,10.10
2024-02-09T03:25:50.110Z,8.30
2024-02-09T03:28:19.870Z,9.40
2024-02-09T03:30:47.496Z,9.10
2024-02-09T03:33:14.780Z,9.00
2024-02-09T03:35:42.066Z,9.20
2024-02-09T03:38:09.174Z,9.30
2024-02-09T03:40:36.289Z,8.60
2024-02-09T03:43:03.425Z,9.30
2024-02-09T03:45:30.786Z,9.20
2024-02-09T03:47:58.187Z,9.20
2024-02-09T03:50:25.518Z,9.70
2024-02-09T03:52:52.754Z,9.30
2024-02-09T03:55:19.916Z,9.10
2024-02-09T03:57:46.992Z,9.40
2024-02-09T04:00:17.082Z,9.10
2024-02-09T04:02:47.305Z,9.00
2024-02-09T04:05:15.353Z,8.90
2024-02-09T04:07:42.975Z,9.30
2024-02-09T04:10:32.710Z,9.40
2024-02-09T04:13:00.103Z,9.30
2024-02-09T04:15:27.246Z,9.20
2024-02-09T04:17:54.419Z,9.30
2024-02-09T04:20:21.438Z,9.10
2024-02-09T04:22:52.184Z,8.90
2024-02-09T04:25:19.534Z,9.20
2024-02-09T04:27:46.908Z,9.30
2024-02-09T04:30:16.515Z,9.30
2024-02-09T04:32:44.996Z,9.20
2024-02-09T04:35:13.077Z,9.40
2024-02-09T04:37:41.622Z,9.20
2024-02-09T04:40:09.421Z,9.20
2024-02-09T04:42:37.897Z,9.40
2024-02-09T04:45:09.043Z,9.20
2024-02-09T04:47:36.230Z,9.10
2024-02-09T04:50:03.439Z,9.30
2024-02-09T04:52:30.778Z,9.10
2024-02-09T04:54:57.826Z,8.70
2024-02-09T04:57:24.946Z,9.10
2024-02-09T04:59:52.083Z,8.80
2024-02-09T05:02:19.104Z,9.20
2024-02-09T05:04:50.826Z,9.20
2024-02-09T05:07:18.300Z,9.30
2024-02-09T05:09:45.456Z,9.20
2024-02-09T05:12:12.471Z,10.00
2024-02-09T05:14:39.408Z,9.30
2024-02-09T05:17:06.522Z,9.40
2024-02-09T05:19:33.537Z,9.30
2024-02-09T05:22:00.658Z,9.40
2024-02-09T05:24:28.757Z,11.60
2024-02-09T05:26:56.060Z,9.70
2024-02-09T05:29:23.066Z,9.80
2024-02-09T05:31:50.644Z,9.90
2024-02-09T05:34:19.296Z,9.70
2024-02-09T05:36:46.314Z,9.90
2024-02-09T05:39:13.390Z,9.70
2024-02-09T05:41:40.643Z,9.90
2024-02-09T05:44:08.280Z,9.50
2024-02-09T05:46:38.952Z,10.20
2024-02-09T05:49:11.307Z,10.50
2024-02-09T05:54:20.428Z,10.10
2024-02-09T05:56:48.046Z,9.90
2024-02-09T05:59:17.097Z,10.10
2024-02-09T06:01:46.882Z,10.30
2024-02-09T06:04:15.868Z,10.30
2024-02-09T06:06:46.914Z,10.20
2024-02-09T06:09:14.036Z,9.60
2024-02-09T06:11:41.251Z,9.90
2024-02-09T06:14:10.836Z,9.90
2024-02-09T06:16:38.976Z,11.30
2024-02-09T06:19:06.177Z,10.10
2024-02-09T06:21:33.649Z,11.20
2024-02-09T06:24:00.660Z,10.50
2024-02-09T06:26:27.665Z,10.20
2024-02-09T06:28:55.200Z,10.10
2024-02-09T06:31:28.139Z,10.20
2024-02-09T06:33:58.083Z,10.10
2024-02-09T06:36:26.710Z,10.00
2024-02-09T06:38:56.964Z,10.00
2024-02-09T06:41:24.087Z,10.30
2024-02-09T06:43:53.179Z,10.40
2024-02-09T06:46:20.791Z,10.50
2024-02-09T06:48:49.308Z,10.30
2024-02-09T06:51:22.036Z,10.40
2024-02-09T06:53:50.483Z,10.10
2024-02-09T06:56:17.659Z,10.10
2024-02-09T07:01:20.389Z,10.10
2024-02-09T07:03:50.984Z,9.90
2024-02-09T07:06:26.963Z,9.30
2024-02-09T07:11:22.380Z,10.10
2024-02-09T07:13:49.643Z,10.00
2024-02-09T07:16:16.684Z,10.00
2024-02-09T07:18:44.131Z,10.20
2024-02-09T07:21:14.033Z,10.30
2024-02-09T07:23:42.007Z,10.10
2024-02-09T07:26:09.571Z,10.30
2024-02-09T07:28:41.992Z,10.20
2024-02-09T07:31:10.387Z,10.60
2024-02-09T07:33:37.984Z,10.20
2024-02-09T07:36:08.100Z,10.30
2024-02-09T07:38:35.983Z,10.50
2024-02-09T07:41:03.180Z,10.50
2024-02-09T07:43:30.363Z,10.50
2024-02-09T07:45:57.382Z,10.60
2024-02-09T07:48:24.422Z,9.90
2024-02-09T07:50:54.083Z,9.60
2024-02-09T07:53:21.296Z,10.50
2024-02-09T07:55:48.533Z,10.30
2024-02-09T07:58:18.131Z,10.60
2024-02-09T08:00:45.516Z,10.50
2024-02-09T08:03:13.222Z,10.20
2024-02-09T08:05:40.616Z,10.20
2024-02-09T08:08:10.370Z,10.20
2024-02-09T08:10:37.478Z,10.20
2024-02-09T08:13:10.103Z,10.30
2024-02-09T08:15:37.337Z,9.70
2024-02-09T08:18:04.740Z,10.10
2024-02-09T08:20:38.053Z,10.10
2024-02-09T08:23:05.255Z,9.20
2024-02-09T08:25:32.357Z,10.40
2024-02-09T08:28:01.664Z,10.10
2024-02-09T08:30:31.642Z,11.20
2024-02-09T08:32:58.783Z,10.10
2024-02-09T08:35:27.528Z,10.00
2024-02-09T08:37:54.771Z,9.90
2024-02-09T08:40:21.977Z,9.80
2024-02-09T08:42:50.109Z,9.40
2024-02-09T08:45:17.347Z,9.90
2024-02-09T08:47:44.736Z,10.10
2024-02-09T08:50:12.917Z,9.80
2024-02-09T08:52:40.120Z,8.80
2024-02-09T08:55:07.665Z,9.60
2024-02-09T08:57:34.772Z,9.90
2024-02-09T09:00:01.762Z,10.30
2024-02-09T09:02:29.858Z,10.00
2024-02-09T09:04:58.632Z,10.00
2024-02-09T09:07:25.767Z,10.00
2024-02-09T09:09:52.754Z,9.10
2024-02-09T09:12:19.811Z,10.00
2024-02-09T09:14:46.790Z,10.20
2024-02-09T09:17:23.625Z,10.40
2024-02-09T09:19:52.804Z,10.20
2024-02-09T09:22:20.716Z,10.20
2024-02-09T09:24:48.170Z,10.40
2024-02-09T09:27:15.386Z,11.40
2024-02-09T09:29:42.425Z,10.20
2024-02-09T09:32:09.832Z,9.40
2024-02-09T09:34:37.164Z,9.90
2024-02-09T09:37:07.631Z,10.10
2024-02-09T09:39:34.713Z,10.00
2024-02-09T09:42:02.076Z,9.90
2024-02-09T09:44:29.241Z,10.10
2024-02-09T09:46:59.403Z,11.20
2024-02-09T09:49:30.321Z,10.20
2024-02-09T09:52:02.106Z,10.30
2024-02-09T09:54:34.127Z,10.30
2024-02-09T09:57:02.188Z,10.10
2024-02-09T09:59:31.084Z,10.30
2024-02-09T10:01:58.513Z,10.50
2024-02-09T10:04:25.972Z,10.50
2024-02-09T10:06:53.860Z,10.60
2024-02-09T10:09:21.058Z,11.10
2024-02-09T10:11:50.255Z,11.30
2024-02-09T10:14:18.209Z,11.80
2024-02-09T10:16:48.952Z,11.70
2024-02-09T10:19:18.003Z,12.10
2024-02-09T10:21:53.979Z,11.70
2024-02-09T10:24:25.359Z,13.80
2024-02-09T10:26:53.097Z,11.70
2024-02-09T10:29:23.210Z,11.80
2024-02-09T10:31:59.981Z,12.00
2024-02-09T10:34:29.725Z,11.90
2024-02-09T10:36:57.393Z,11.70
2024-02-09T10:39:28.702Z,11.70
2024-02-09T10:42:05.316Z,11.60
2024-02-09T10:44:34.653Z,11.70
2024-02-09T10:47:03.291Z,11.70
2024-02-09T10:49:31.810Z,11.70
2024-02-09T10:52:06.106Z,12.10
2024-02-09T10:54:49.534Z,12.00
2024-02-09T10:57:20.815Z,11.30
2024-02-09T10:59:51.682Z,12.80
2024-02-09T11:02:19.750Z,13.00
2024-02-09T11:04:47.775Z,12.50
2024-02-09T11:07:17.259Z,12.50
2024-02-09T11:09:45.101Z,12.80
2024-02-09T11:12:13.681Z,11.80
2024-02-09T11:14:45.634Z,11.90
2024-02-09T11:17:17.037Z,11.90
2024-02-09T11:19:46.671Z,11.90
2024-02-09T11:22:14.080Z,12.30
2024-02-09T11:24:50.222Z,12.20
2024-02-09T11:27:20.257Z,12.20
2024-02-09T11:29:47.350Z,12.10
2024-02-09T11:32:15.703Z,12.10
2024-02-09T11:34:42.738Z,12.80
2024-02-09T11:37:11.033Z,12.20
2024-02-09T11:39:38.583Z,12.20
2024-02-09T11:42:07.298Z,12.10
2024-02-09T11:44:37.550Z,13.40
2024-02-09T11:47:05.760Z,12.50
2024-02-09T11:49:33.001Z,12.50
2024-02-09T11:52:05.630Z,11.70
2024-02-09T11:54:34.417Z,12.40
2024-02-09T11:57:06.738Z,13.20
2024-02-09T11:59:37.480Z,12.80
2024-02-09T12:02:07.027Z,12.20
2024-02-09T12:04:34.282Z,12.20
2024-02-09T12:07:01.803Z,12.00
2024-02-09T12:09:32.577Z,12.60
2024-02-09T12:11:59.629Z,12.70
2024-02-09T12:14:30.001Z,12.50
2024-02-09T12:16:58.044Z,12.20
2024-02-09T12:19:25.532Z,12.60
2024-02-09T12:21:52.744Z,12.50
2024-02-09T12:24:20.749Z,12.40
2024-02-09T12:26:47.740Z,12.40
2024-02-09T12:29:15.211Z,12.40
2024-02-09T12:31:48.067Z,12.10
2024-02-09T12:37:00.471Z,13.10
2024-02-09T12:39:27.809Z,12.80
2024-02-09T12:42:02.340Z,12.60
2024-02-09T12:44:31.707Z,12.40
2024-02-09T12:47:04.839Z,12.10
2024-02-09T12:49:38.589Z,12.30
2024-02-09T12:52:10.418Z,12.40
2024-02-09T12:54:38.751Z,12.40
2024-02-09T12:57:09.345Z,12.10
2024-02-09T12:59:38.894Z,12.00
2024-02-09T13:02:06.468Z,12.00
2024-02-09T13:04:34.151Z,12.00
2024-02-09T13:07:01.971Z,11.80
2024-02-09T13:09:29.034Z,12.00
2024-02-09T13:11:56.070Z,13.10
2024-02-09T13:14:24.313Z,11.60
2024-02-09T13:16:51.510Z,11.60
2024-02-09T13:19:19.749Z,11.40
2024-02-09T13:21:50.951Z,11.40
2024-02-09T13:24:18.034Z,12.30
2024-02-09T13:26:45.654Z,11.20
2024-02-09T13:29:15.705Z,11.10
2024-02-09T13:31:43.148Z,11.20
2024-02-09T13:34:10.781Z,11.20
2024-02-09T13:36:37.969Z,11.20
2024-02-09T13:39:05.015Z,11.20
2024-02-09T13:41:32.071Z,11.00
2024-02-09T13:43:59.665Z,11.00
2024-02-09T13:46:27.413Z,10.70
2024-02-09T13:48:54.974Z,12.00
2024-02-09T13:51:23.660Z,10.80
2024-02-09T13:53:50.812Z,10.90
2024-02-09T13:56:18.379Z,10.80
2024-02-09T13:58:48.233Z,10.70
2024-02-09T14:01:16.438Z,10.10
2024-02-09T14:03:43.712Z,10.70
2024-02-09T14:06:12.241Z,10.50
2024-02-09T14:08:41.190Z,10.70
2024-02-09T14:11:08.262Z,10.40
2024-02-09T14:13:36.154Z,10.60
2024-02-09T14:16:05.136Z,10.70
2024-02-09T14:18:32.540Z,10.70
2024-02-09T14:20:59.746Z,11.30
2024-02-09T14:23:29.053Z,10.70
2024-02-09T14:25:59.351Z,10.60
2024-02-09T14:28:29.059Z,10.60
2024-02-09T14:30:57.698Z,10.60
2024-02-09T14:33:24.971Z,10.70
2024-02-09T14:35:52.069Z,10.50
2024-02-09T14:38:19.446Z,10.70
2024-02-09T14:40:46.520Z,11.60
2024-02-09T14:43:15.364Z,10.60
2024-02-09T14:45:43.195Z,10.60
2024-02-09T14:48:10.489Z,10.60
2024-02-09T14:50:37.923Z,10.50
2024-02-09T14:53:05.363Z,10.30
2024-02-09T14:55:32.482Z,10.50
2024-02-09T14:58:03.067Z,10.80
2024-02-09T15:00:35.461Z,10.50
2024-02-09T15:03:02.978Z,11.50
2024-02-09T15:05:31.104Z,10.60
2024-02-09T15:07:59.842Z,10.50
2024-02-09T15:10:30.824Z,10.60
2024-02-09T15:12:57.972Z,9.80
2024-02-09T15:15:27.168Z,10.50
2024-02-09T15:17:54.460Z,10.50
2024-02-09T15:20:21.985Z,10.30
2024-02-09T15:22:50.434Z,10.40
2024-02-09T15:25:18.581Z,10.50
2024-02-09T15:27:46.528Z,10.40
2024-02-09T15:30:16.400Z,10.20
2024-02-09T15:32:43.783Z,10.30
2024-02-09T15:35:11.987Z,10.40
2024-02-09T15:37:40.324Z,10.20
2024-02-09T15:40:08.313Z,10.30
2024-02-09T15:42:35.632Z,10.40
2024-02-09T15:45:02.626Z,10.30
2024-02-09T15:47:32.091Z,10.30
2024-02-09T15:49:59.563Z,10.00
2024-02-09T15:52:28.843Z,10.40
2024-02-09T15:54:56.087Z,10.30
2024-02-09T15:57:24.503Z,10.40
2024-02-09T15:59:51.999Z,10.40
2024-02-09T16:02:19.087Z,10.20
2024-02-09T16:04:46.326Z,10.30
2024-02-09T16:07:13.656Z,9.90
2024-02-09T16:09:40.856Z,10.30
2024-02-09T16:12:11.916Z,10.30
2024-02-09T16:14:40.126Z,10.40
2024-02-09T16:17:08.147Z,10.20
2024-02-09T16:19:36.114Z,10.30
2024-02-09T16:22:03.523Z,10.00
2024-02-09T16:24:31.095Z,10.10
2024-02-09T16:26:58.173Z,9.00
2024-02-09T16:29:25.406Z,10.10
2024-02-09T16:31:52.605Z,9.60
2024-02-09T16:34:19.777Z,10.90
2024-02-09T16:36:46.868Z,10.00
2024-02-09T16:39:15.761Z,10.20
2024-02-09T16:41:43.471Z,9.70
2024-02-09T16:44:10.703Z,10.20
2024-02-09T16:46:37.717Z,10.00
2024-02-09T16:49:05.424Z,10.10
2024-02-09T16:51:32.590Z,10.20
2024-02-09T16:54:00.313Z,11.50
2024-02-09T16:56:27.656Z,10.20
2024-02-09T16:58:55.061Z,10.00
2024-02-09T17:01:25.835Z,10.10
2024-02-09T17:03:53.883Z,10.10
2024-02-09T17:06:21.813Z,11.10
2024-02-09T17:08:51.213Z,10.10
2024-02-09T17:11:20.538Z,10.10
2024-02-09T17:13:47.994Z,10.10
2024-02-09T17:16:15.345Z,10.10
2024-02-09T17:18:43.676Z,10.00
2024-02-09T17:21:13.856Z,10.20
2024-02-09T17:23:40.914Z,10.20
2024-02-09T17:26:08.190Z,10.20
2024-02-09T17:28:35.483Z,10.00
2024-02-09T17:31:02.588Z,10.60
2024-02-09T17:33:29.835Z,10.00
2024-02-09T17:35:56.990Z,10.10
2024-02-09T17:38:23.990Z,10.50
2024-02-09T17:40:51.065Z,10.20
2024-02-09T17:43:18.169Z,10.30
2024-02-09T17:45:45.411Z,10.00
2024-02-09T17:48:12.440Z,10.00
2024-02-09T17:50:40.684Z,10.00
2024-02-09T17:53:08.906Z,10.00
2024-02-09T17:55:36.616Z,9.70
2024-02-09T17:58:03.762Z,10.10
2024-02-09T18:00:31.015Z,9.70
2024-02-09T18:02:59.590Z,10.20
2024-02-09T18:05:27.690Z,10.10
2024-02-09T18:07:55.006Z,9.90
2024-02-09T18:10:22.085Z,10.20
2024-02-09T18:12:49.456Z,9.10
2024-02-09T18:15:16.662Z,9.90
2024-02-09T18:17:44.011Z,9.60
2024-02-09T18:20:12.055Z,9.70
2024-02-09T18:22:39.253Z,9.90
2024-02-09T18:25:09.698Z,10.00
2024-02-09T18:27:39.820Z,10.10
2024-02-09T18:30:08.617Z,8.20
2024-02-09T18:32:35.729Z,9.90
2024-02-09T18:35:03.000Z,10.90
2024-02-09T18:37:31.901Z,9.20
2024-02-09T18:39:59.354Z,10.00
2024-02-09T18:42:27.221Z,10.10
2024-02-09T18:44:54.214Z,10.00
2024-02-09T18:47:21.981Z,10.10
2024-02-09T18:49:51.952Z,10.00
2024-02-09T18:52:19.158Z,9.70
2024-02-09T18:54:46.623Z,9.10
2024-02-09T18:57:14.008Z,10.00
2024-02-09T18:59:41.868Z,9.50
2024-02-09T19:02:09.391Z,9.80
2024-02-09T19:04:37.503Z,9.50
2024-02-09T19:07:05.776Z,9.80
2024-02-09T19:09:33.048Z,9.90
2024-02-09T19:12:00.216Z,9.80
2024-02-09T19:14:27.258Z,9.80
2024-02-09T19:19:23.184Z,9.80
2024-02-09T19:21:50.386Z,9.80
2024-02-09T19:24:18.872Z,9.90
2024-02-09T19:26:46.463Z,9.40
2024-02-09T19:29:13.515Z,9.80
2024-02-09T19:31:40.649Z,9.80
2024-02-09T19:34:09.318Z,10.00
2024-02-09T19:36:36.655Z,9.90
2024-02-09T19:39:04.953Z,9.90
2024-02-09T19:41:33.316Z,9.90
2024-02-09T19:44:00.405Z,9.90
2024-02-09T19:46:30.136Z,9.90
2024-02-09T19:49:00.725Z,9.90
2024-02-09T19:51:29.238Z,9.80
2024-02-09T19:53:56.316Z,9.80
2024-02-09T19:56:23.323Z,9.80
2024-02-09T19:58:53.971Z,9.90
2024-02-09T20:01:21.219Z,10.30
2024-02-09T20:03:48.335Z,9.80
2024-02-09T20:06:15.458Z,9.90
2024-02-09T20:08:42.500Z,9.80
2024-02-09T20:11:10.946Z,9.50
2024-02-09T20:13:38.191Z,9.80
2024-02-09T20:16:05.784Z,9.80
2024-02-09T20:18:33.320Z,9.90
2024-02-09T20:21:00.717Z,9.70
2024-02-09T20:23:28.730Z,9.50
2024-02-09T20:25:56.157Z,9.80
2024-02-09T20:28:25.533Z,9.80
2024-02-09T20:30:52.561Z,9.60
2024-02-09T20:33:20.688Z,9.50
2024-02-09T20:35:52.655Z,9.80
2024-02-09T20:38:20.131Z,9.70
2024-02-09T20:40:47.297Z,9.50
2024-02-09T20:43:14.792Z,9.90
2024-02-09T20:45:41.848Z,9.80
2024-02-09T20:48:09.608Z,9.70
2024-02-09T20:50:41.257Z,9.60
2024-02-09T20:53:08.727Z,9.80
2024-02-09T20:55:37.741Z,9.50
2024-02-09T20:58:07.027Z,9.50
2024-02-09T21:00:38.763Z,9.70
2024-02-09T21:03:08.146Z,9.60
2024-02-09T21:05:39.570Z,10.20
2024-02-09T21:08:07.747Z,9.40
2024-02-09T21:10:36.832Z,10.00
2024-02-09T21:13:04.422Z,9.70
2024-02-09T21:15:32.089Z,9.80
2024-02-09T21:18:00.401Z,9.60
2024-02-09T21:20:28.654Z,9.70
2024-02-09T21:22:56.383Z,9.60
2024-02-09T21:25:24.577Z,9.70
2024-02-09T21:27:51.890Z,9.60
2024-02-09T21:30:24.315Z,9.70
2024-02-09T21:32:57.011Z,9.60
2024-02-09T21:35:27.415Z,9.50
2024-02-09T21:37:58.080Z,9.60
2024-02-09T21:40:28.646Z,9.50
2024-02-09T21:45:26.646Z,9.70
2024-02-09T21:47:54.736Z,10.30
2024-02-09T21:50:22.294Z,9.30
2024-02-09T21:52:51.718Z,9.60
2024-02-09T21:55:20.452Z,9.50
2024-02-09T21:57:48.070Z,9.60
2024-02-09T22:02:44.488Z,9.60
2024-02-09T22:05:12.768Z,9.70
2024-02-09T22:07:40.094Z,9.60
2024-02-09T22:10:07.583Z,9.80
2024-02-09T22:12:35.775Z,9.10
2024-02-09T22:15:02.912Z,8.90
2024-02-09T22:17:30.035Z,9.70
2024-02-09T22:19:57.997Z,9.50
2024-02-09T22:22:26.004Z,9.90
2024-02-09T22:24:53.497Z,8.60
2024-02-09T22:27:27.478Z,9.90
2024-02-09T22:29:59.054Z,9.50
2024-02-09T22:32:26.938Z,9.60
2024-02-09T22:35:01.132Z,9.50
2024-02-09T22:37:28.346Z,9.30
2024-02-09T22:39:55.314Z,9.40
2024-02-09T22:42:22.358Z,9.60
2024-02-09T22:44:49.975Z,9.40
2024-02-09T22:47:19.286Z,9.60
2024-02-09T22:49:48.548Z,9.30
2024-02-09T22:52:16.513Z,9.20
2024-02-09T22:54:44.017Z,9.30
2024-02-09T22:57:15.863Z,9.20
2024-02-09T22:59:43.177Z,9.00
2024-02-09T23:02:10.346Z,9.30
2024-02-09T23:04:37.980Z,9.50
2024-02-09T23:07:07.870Z,9.40
2024-02-09T23:09:35.225Z,9.40
2024-02-09T23:12:02.194Z,9.50
2024-02-09T23:14:34.169Z,9.80
2024-02-09T23:17:05.991Z,9.60
2024-02-09T23:19:33.309Z,9.30
2024-02-09T23:22:02.396Z,9.40
2024-02-09T23:24:29.500Z,9.40
2024-02-09T23:26:57.305Z,9.60
2024-02-09T23:29:25.673Z,9.60
2024-02-09T23:31:59.607Z,9.40
2024-02-09T23:34:26.884Z,9.40
2024-02-09T23:36:54.431Z,9.40
2024-02-09T23:39:23.110Z,9.50
2024-02-09T23:41:50.456Z,9.40
2024-02-09T23:44:23.991Z,9.50
2024-02-09T23:46:51.472Z,9.20
2024-02-09T23:49:19.870Z,9.30
2024-02-09T23:51:49.957Z,9.40
2024-02-09T23:54:17.931Z,9.20
2024-02-09T23:56:45.802Z,9.10
2024-02-09T23:59:13.753Z,9.10
